Time;durP1;ratioP1;P1;durP2;ratioP2;P2;SDS_P1;SDS_P2;PMS_P1;PMS_P2;Temp;Humidity;BMP_temperature;BMP_pressure;BME280_temperature;BME280_humidity;BME280_pressure;Samples;Min_cycle;Max_cycle;Signal;HPM_P1;HPM_P2
2022/05/31 00:02:04;;;;;;;1.52;0.95;;;14.10;61.10;;;;;;4988223;28;20073;-72
2022/05/31 00:04:30;;;;;;;3.03;1.17;;;;;;;;;;4988676;28;20035;-71
2022/05/31 00:06:57;;;;;;;2.65;1.30;;;;;;;;;;4985251;28;20815;-72
2022/05/31 00:09:23;;;;;;;2.65;1.15;;;;;;;;;;4987398;28;20050;-73
2022/05/31 00:11:49;;;;;;;1.35;1.05;;;;;;;;;;4984117;28;20395;-72
2022/05/31 00:14:16;;;;;;;3.55;1.13;;;14.30;69.70;;;;;;4988491;28;20038;-72
2022/05/31 00:16:44;;;;;;;6.28;1.10;;;;;;;;;;4988762;28;20105;-72
2022/05/31 00:19:10;;;;;;;;;;;;;;;;;;4988942;28;20539;-73
2022/05/31 00:21:59;;;;;;;2.10;1.70;;;;;;;;;;4988781;28;19993;-72
2022/05/31 00:24:25;;;;;;;1.33;1.23;;;;;;;;;;4988383;28;20184;-72
2022/05/31 00:26:51;;;;;;;2.13;1.00;;;;;;;;;;4983983;28;20460;-73
2022/05/31 00:29:17;;;;;;;3.08;1.00;;;14.30;68.60;;;;;;4987738;28;20030;-73
2022/05/31 00:31:49;;;;;;;2.10;0.70;;;;;;;;;;4984480;28;20436;-72
2022/05/31 00:34:16;;;;;;;1.15;1.10;;;13.90;74.60;;;;;;4983634;28;20025;-72
2022/05/31 00:36:45;;;;;;;0.75;0.75;;;;;;;;;;4989411;28;20405;-73
2022/05/31 00:39:11;;;;;;;0.77;0.77;;;;;;;;;;4987763;28;20735;-72
2022/05/31 00:41:39;;;;;;;2.25;0.85;;;14.10;69.10;;;;;;4988382;28;20042;-72
2022/05/31 00:44:08;;;;;;;1.00;0.80;;;14.10;60.30;;;;;;4988127;28;20030;-72
2022/05/31 00:46:49;;;;;;;0.70;0.65;;;;;;;;;;4983996;28;20113;-73
2022/05/31 00:49:18;;;;;;;2.88;0.98;;;;;;;;;;4990164;28;20034;-73
2022/05/31 00:51:52;;;;;;;1.95;0.95;;;14.00;63.00;;;;;;5019455;28;20033;-72
2022/05/31 00:54:19;;;;;;;2.95;1.52;;;;;;;;;;4991657;28;20602;-72
2022/05/31 00:56:46;;;;;;;1.35;0.90;;;;;;;;;;4986842;28;20034;-72
2022/05/31 00:59:27;;;;;;;0.90;0.90;;;14.10;63.30;;;;;;4981339;28;20031;-73
2022/05/31 01:01:56;;;;;;;1.42;1.27;;;;;;;;;;4991989;28;20522;-72
2022/05/31 01:04:26;;;;;;;1.02;0.93;;;;;;;;;;4991802;28;20399;-72
2022/05/31 01:06:55;;;;;;;1.30;0.90;;;;;;;;;;4986902;28;20030;-72
2022/05/31 01:09:21;;;;;;;1.75;0.82;;;14.10;68.20;;;;;;4991360;28;20026;-71
2022/05/31 01:11:47;;;;;;;1.58;1.48;;;;;;;;;;4991691;28;20041;-73
2022/05/31 01:14:13;;;;;;;0.65;0.65;;;;;;;;;;4991244;28;20035;-72
2022/05/31 01:16:58;;;;;;;1.65;0.90;;;14.10;65.00;;;;;;4991315;28;20408;-72
2022/05/31 01:22:09;;;;;;;0.82;0.60;;;;;;;;;;4984034;28;20033;-73
2022/05/31 01:24:40;;;;;;;2.22;1.15;;;;;;;;;;4987346;28;20407;-72
2022/05/31 01:27:09;;;;;;;0.80;0.80;;;;;;;;;;4986608;28;20030;-73
2022/05/31 01:29:37;;;;;;;1.08;0.98;;;;;;;;;;4988416;28;20038;-71
2022/05/31 01:32:11;;;;;;;2.45;0.98;;;14.10;65.20;;;;;;4989686;28;20113;-72
2022/05/31 01:35:06;;;;;;;0.85;0.82;;;14.20;64.70;;;;;;4986943;28;20042;-73
2022/05/31 01:37:48;;;;;;;1.35;0.90;;;14.10;64.30;;;;;;4991379;28;20625;-72
2022/05/31 01:40:18;;;;;;;2.85;0.70;;;;;;;;;;4991603;28;20114;-72
2022/05/31 01:42:45;;;;;;;3.85;1.30;;;;;;;;;;4991257;28;20401;-72
2022/05/31 01:45:16;;;;;;;1.25;0.90;;;14.00;65.20;;;;;;4986369;28;20733;-72
2022/05/31 01:47:42;;;;;;;1.10;1.00;;;;;;;;;;4990802;28;20051;-73
2022/05/31 01:50:14;;;;;;;1.13;1.00;;;;;;;;;;4990100;28;20089;-72
2022/05/31 01:52:41;;;;;;;1.08;0.95;;;;;;;;;;4986704;28;20026;-72
2022/05/31 01:55:08;;;;;;;1.20;1.10;;;;;;;;;;4991995;28;20037;-73
2022/05/31 01:57:35;;;;;;;1.42;1.33;;;;;;;;;;4986957;28;20129;-72
2022/05/31 02:00:05;;;;;;;1.23;1.02;;;13.90;66.00;;;;;;4990148;28;20038;-72
2022/05/31 02:02:31;;;;;;;1.30;1.10;;;;;;;;;;4987361;28;20045;-73
2022/05/31 02:04:57;;;;;;;1.27;0.95;;;;;;;;;;4989026;28;20053;-73
2022/05/31 02:07:24;;;;;;;0.80;0.80;;;;;;;;;;4990650;28;20031;-72
2022/05/31 02:09:51;;;;;;;1.20;1.10;;;;;;;;;;4990992;28;20105;-74
2022/05/31 02:12:18;;;;;;;2.13;1.27;;;;;;;;;;4986173;28;20085;-72
2022/05/31 02:14:44;;;;;;;1.25;1.00;;;;;;;;;;4990061;28;20034;-72
2022/05/31 02:17:10;;;;;;;3.58;1.52;;;;;;;;;;4990457;28;20106;-71
2022/05/31 02:19:37;;;;;;;0.93;0.90;;;;;;;;;;4985959;28;20027;-72
2022/05/31 02:22:06;;;;;;;2.08;1.20;;;14.10;70.60;;;;;;5022686;28;20022;-72
2022/05/31 02:24:32;;;;;;;2.22;1.58;;;;;;;;;;4989705;28;20570;-72
2022/05/31 02:26:58;;;;;;;1.27;0.98;;;;;;;;;;4989655;28;20049;-72
2022/05/31 02:29:26;;;;;;;2.55;1.33;;;;;;;;;;4990363;28;20042;-72
2022/05/31 02:31:52;;;;;;;3.88;1.23;;;;;;;;;;4989928;28;20053;-72
2022/05/31 02:34:22;;;;;;;4.78;2.38;;;;;;;;;;4990164;28;20030;-71
2022/05/31 02:36:48;;;;;;;5.15;1.20;;;;;;;;;;4986328;28;20096;-72
2022/05/31 02:39:14;;;;;;;2.17;1.60;;;;;;;;;;4985133;28;20035;-72
2022/05/31 02:41:40;;;;;;;1.00;0.77;;;;;;;;;;4990019;28;20042;-72
2022/05/31 02:44:07;;;;;;;2.72;1.10;;;;;;;;;;4989601;28;20890;-73
2022/05/31 02:46:33;;;;;;;1.10;0.73;;;;;;;;;;4989048;28;20440;-72
2022/05/31 02:49:00;;;;;;;3.00;1.17;;;;;;;;;;4990253;28;20026;-71
2022/05/31 02:51:26;;;;;;;1.35;1.08;;;;;;;;;;4984836;28;20074;-71
2022/05/31 02:53:52;;;;;;;1.83;1.20;;;;;;;;;;4987803;28;20030;-72
2022/05/31 02:56:18;;;;;;;0.77;0.77;;;;;;;;;;4989782;28;20420;-72
2022/05/31 02:58:44;;;;;;;3.20;0.95;;;;;;;;;;4989566;28;20034;-72
2022/05/31 03:01:37;;;;;;;1.80;1.35;;;;;;;;;;4988602;28;20026;-71
2022/05/31 03:04:03;;;;;;;1.40;1.30;;;;;;;;;;4978163;28;20092;-73
2022/05/31 03:06:29;;;;;;;1.70;0.97;;;;;;;;;;4988866;28;20471;-73
2022/05/31 03:08:55;;;;;;;2.67;1.25;;;14.00;88.90;;;;;;4986118;28;20289;-73
2022/05/31 03:11:27;;;;;;;1.65;1.30;;;;;;;;;;4986884;28;20038;-72
2022/05/31 03:14:00;;;;;;;1.90;1.23;;;13.90;68.40;;;;;;4985299;28;20030;-72
2022/05/31 03:16:26;;;;;;;3.25;1.67;;;;;;;;;;4989387;28;20030;-73
2022/05/31 03:19:06;;;;;;;1.17;0.98;;;13.90;68.60;;;;;;4989520;28;20084;-72
2022/05/31 03:21:40;;;;;;;1.30;1.20;;;;;;;;;;4989740;28;20530;-72
2022/05/31 03:24:10;;;;;;;2.72;1.65;;;;;;;;;;4988617;28;20053;-73
2022/05/31 03:26:38;;;;;;;1.30;1.08;;;;;;;;;;4988261;28;20049;-72
2022/05/31 03:29:04;;;;;;;1.38;1.10;;;;;;;;;;4989001;28;20022;-72
2022/05/31 03:31:30;;;;;;;9.02;1.38;;;;;;;;;;4988771;28;20042;-73
2022/05/31 03:33:57;;;;;;;1.55;0.98;;;;;;;;;;4990248;28;20058;-72
2022/05/31 03:36:23;;;;;;;1.33;1.23;;;13.90;90.40;;;;;;4988818;28;20031;-73
2022/05/31 03:38:49;;;;;;;1.15;1.08;;;13.90;90.40;;;;;;4984551;28;20397;-72
2022/05/31 03:41:14;;;;;;;1.23;0.98;;;13.80;75.80;;;;;;4988648;28;20054;-72
2022/05/31 03:43:42;;;;;;;1.75;1.10;;;;;;;;;;4984692;28;20553;-72
2022/05/31 03:46:12;;;;;;;2.22;1.05;;;;;;;;;;4989023;28;20065;-72
2022/05/31 03:48:38;;;;;;;1.63;1.02;;;;;;;;;;4984685;28;20507;-72
2022/05/31 03:51:05;;;;;;;1.60;1.50;;;;;;;;;;4988723;28;20053;-72
2022/05/31 03:53:32;;;;;;;1.92;1.33;;;;;;;;;;4988870;28;20022;-72
2022/05/31 03:56:01;;;;;;;1.65;1.13;;;13.80;70.70;;;;;;4989253;28;20053;-72
2022/05/31 03:58:28;;;;;;;2.55;1.25;;;;;;;;;;4988532;28;20034;-72
2022/05/31 04:00:53;;;;;;;2.00;1.30;;;;;;;;;;4988689;28;20019;-72
2022/05/31 04:03:19;;;;;;;1.52;1.13;;;;;;;;;;4982316;28;20030;-72
2022/05/31 04:05:46;;;;;;;2.92;1.25;;;;;;;;;;4984244;28;20035;-72
2022/05/31 04:08:12;;;;;;;1.35;1.17;;;;;;;;;;4988511;28;20184;-72
2022/05/31 04:10:40;;;;;;;1.58;1.30;;;14.10;70.40;;;;;;4984820;28;20421;-72
2022/05/31 04:13:07;;;;;;;2.53;1.73;;;;;;;;;;4989528;28;20180;-72
2022/05/31 04:15:33;;;;;;;2.10;1.25;;;;;;;;;;4988544;28;20070;-72
2022/05/31 04:17:59;;;;;;;1.35;0.75;;;;;;;;;;4988317;28;20018;-73
2022/05/31 04:20:26;;;;;;;1.45;1.30;;;14.20;90.50;;;;;;4985921;28;20089;-71
2022/05/31 04:23:57;;;;;;;4.82;1.10;;;;;;;;;;4986018;28;20888;-72
2022/05/31 04:25:38;;;;;;;3.47;1.33;;;;;;;;;;4988446;28;20031;-72
2022/05/31 04:28:03;;;;;;;1.77;1.48;;;14.10;90.70;;;;;;4993351;28;20031;-73
2022/05/31 04:30:29;;;;;;;1.60;1.38;;;;;;;;;;4992147;28;20089;-72
2022/05/31 04:32:55;;;;;;;1.33;1.17;;;14.00;91.30;;;;;;4992351;28;20365;-72
2022/05/31 04:35:21;;;;;;;2.08;0.88;;;;;;;;;;4992356;28;20042;-72
2022/05/31 04:37:47;;;;;;;0.75;0.75;;;;;;;;;;4991820;28;20033;-72
2022/05/31 04:40:13;;;;;;;1.90;1.58;;;14.20;83.60;;;;;;4992594;28;20554;-72
2022/05/31 04:42:39;;;;;;;2.75;2.55;;;;;;;;;;4992370;28;20066;-71
2022/05/31 04:45:06;;;;;;;2.50;1.15;;;;;;;;;;4991912;28;20046;-73
2022/05/31 04:47:32;;;;;;;1.95;1.30;;;;;;;;;;4992218;28;20042;-72
2022/05/31 04:49:58;;;;;;;0.98;0.90;;;14.40;91.30;;;;;;4991786;28;20702;-72
2022/05/31 04:52:24;;;;;;;6.13;1.35;;;;;;;;;;4987576;28;20026;-72
2022/05/31 04:54:49;;;;;;;2.03;1.63;;;;;;;;;;4992418;28;20030;-71
2022/05/31 04:57:15;;;;;;;3.90;1.38;;;14.60;92.30;;;;;;4987025;28;20373;-72
2022/05/31 04:59:41;;;;;;;2.22;1.17;;;;;;;;;;4990814;28;20121;-73
2022/05/31 05:02:07;;;;;;;1.48;1.15;;;;;;;;;;4989870;28;20034;-72
2022/05/31 05:04:34;;;;;;;2.35;2.15;;;14.70;79.90;;;;;;4988158;28;20025;-73
2022/05/31 05:06:59;;;;;;;1.77;1.33;;;14.60;88.30;;;;;;4992940;28;20550;-73
2022/05/31 05:09:25;;;;;;;1.83;1.30;;;;;;;;;;4988185;28;20038;-72
2022/05/31 05:11:51;;;;;;;5.95;1.58;;;;;;;;;;4986917;28;20431;-73
2022/05/31 05:14:17;;;;;;;3.20;1.95;;;;;;;;;;4989783;28;20033;-72
2022/05/31 05:16:43;;;;;;;2.35;1.70;;;14.30;90.20;;;;;;4988052;28;20399;-73
2022/05/31 05:19:08;;;;;;;1.90;1.55;;;14.30;90.60;;;;;;4987346;28;20034;-73
2022/05/31 05:21:34;;;;;;;2.25;1.70;;;;;;;;;;4991958;28;20035;-73
2022/05/31 05:24:00;;;;;;;2.45;1.55;;;;;;;;;;4991198;28;20018;-73
2022/05/31 05:26:26;;;;;;;2.80;1.42;;;;;;;;;;4991388;28;20662;-72
2022/05/31 05:31:57;;;;;;;2.47;1.65;;;;;;;;;;5001377;28;20050;-72
2022/05/31 05:34:23;;;;;;;2.88;1.70;;;;;;;;;;5005706;28;20045;-72
2022/05/31 05:36:49;;;;;;;2.30;1.98;;;;;;;;;;5004379;28;20485;-72
2022/05/31 05:39:15;;;;;;;2.63;1.90;;;;;;;;;;5004823;28;20077;-73
2022/05/31 05:41:41;;;;;;;2.70;1.55;;;;;;;;;;5005409;28;20046;-72
2022/05/31 05:44:08;;;;;;;2.45;1.90;;;;;;;;;;5005060;28;20036;-73
2022/05/31 05:46:34;;;;;;;3.60;2.50;;;;;;;;;;5005763;28;20549;-73
2022/05/31 05:49:01;;;;;;;1.85;1.45;;;;;;;;;;5006282;28;20030;-73
2022/05/31 05:51:29;;;;;;;1.10;1.00;;;;;;;;;;5005091;28;20045;-73
2022/05/31 05:53:55;;;;;;;;;;;;;;;;;;5006921;28;20034;-72
2022/05/31 05:56:21;;;;;;;1.48;1.00;;;;;;;;;;5004558;28;19917;-72
2022/05/31 05:58:47;;;;;;;1.33;0.93;;;;;;;;;;5004694;28;20092;-72
2022/05/31 06:01:28;;;;;;;2.70;1.05;;;14.80;93.40;;;;;;5005655;28;20036;-72
2022/05/31 06:03:54;;;;;;;2.47;0.70;;;;;;;;;;5007543;28;20025;-73
2022/05/31 06:06:21;;;;;;;1.40;0.85;;;;;;;;;;4995179;28;20101;-78
2022/05/31 06:09:01;;;;;;;5.75;1.40;;;;;;;;;;4984264;28;20061;-75
2022/05/31 06:11:59;;;;;;;1.00;0.90;;;;;;;;;;4988402;28;20054;-75
2022/05/31 06:14:28;;;;;;;3.10;2.17;;;;;;;;;;5003749;28;20745;-76
2022/05/31 06:16:56;;;;;;;1.98;1.30;;;;;;;;;;4992648;28;20543;-75
2022/05/31 06:19:29;;;;;;;1.70;1.60;;;;;;;;;;5006115;28;20034;-72
2022/05/31 06:21:55;;;;;;;1.40;1.23;;;;;;;;;;5005527;28;20030;-73
2022/05/31 06:24:23;;;;;;;3.80;1.88;;;;;;;;;;5001215;28;20042;-72
2022/05/31 06:26:49;;;;;;;5.50;2.45;;;;;;;;;;5002682;28;20026;-71
2022/05/31 06:29:15;;;;;;;9.38;3.85;;;;;;;;;;5005562;28;20056;-72
2022/05/31 06:31:41;;;;;;;6.90;5.15;;;;;;;;;;5003243;28;20109;-71
2022/05/31 06:34:07;;;;;;;5.75;3.22;;;;;;;;;;5007491;28;20053;-72
2022/05/31 06:36:33;;;;;;;7.30;3.97;;;;;;;;;;5002705;28;20601;-73
2022/05/31 06:38:59;;;;;;;8.65;3.25;;;;;;;;;;5001741;28;20037;-72
2022/05/31 06:41:25;;;;;;;21.13;3.47;;;;;;;;;;5002797;28;20144;-71
2022/05/31 06:43:51;;;;;;;6.72;3.53;;;;;;;;;;5003222;28;20050;-72
2022/05/31 06:46:17;;;;;;;8.93;3.25;;;;;;;;;;5003937;28;20030;-72
2022/05/31 06:48:43;;;;;;;4.43;1.55;;;;;;;;;;4988093;28;20040;-72
2022/05/31 06:51:10;;;;;;;2.30;1.13;;;;;;;;;;4985039;28;20463;-68
2022/05/31 06:59:08;;;;;;;2.42;1.35;;;;;;;;;;4985976;28;20044;-67
2022/05/31 07:01:37;;;;;;;1.88;1.45;;;;;;;;;;4982661;28;20134;-67
2022/05/31 07:04:04;;;;;;;1.50;0.93;;;;;;;;;;4983563;28;20105;-68
2022/05/31 07:06:31;;;;;;;7.40;1.40;;;;;;;;;;4984122;28;20026;-67
2022/05/31 07:08:57;;;;;;;;;;;16.10;92.60;;;;;;4984797;28;20037;-67
2022/05/31 07:11:23;;;;;;;1.90;1.35;;;;;;;;;;4981124;28;19913;-67
2022/05/31 07:13:50;;;;;;;4.07;1.23;;;;;;;;;;4973282;28;20029;-66
2022/05/31 07:16:16;;;;;;;1.55;1.02;;;;;;;;;;4984257;28;20031;-67
2022/05/31 07:18:42;;;;;;;1.88;1.20;;;;;;;;;;4985104;28;20030;-69
2022/05/31 07:21:08;;;;;;;4.20;1.67;;;;;;;;;;4984764;28;20034;-67
2022/05/31 07:23:34;;;;;;;2.30;1.50;;;;;;;;;;4980740;28;20076;-68
2022/05/31 07:26:02;;;;;;;4.30;1.38;;;;;;;;;;4982697;28;20049;-68
2022/05/31 07:28:28;;;;;;;4.53;1.77;;;;;;;;;;4977402;28;20069;-67
2022/05/31 07:30:54;;;;;;;2.35;1.55;;;;;;;;;;4976383;28;20076;-69
2022/05/31 07:33:21;;;;;;;3.92;1.88;;;;;;;;;;4980246;28;20045;-68
2022/05/31 07:35:49;;;;;;;2.03;0.90;;;;;;;;;;4975710;28;20034;-69
2022/05/31 07:38:15;;;;;;;1.00;0.90;;;;;;;;;;4984574;28;20557;-70
2022/05/31 07:40:41;;;;;;;3.63;1.02;;;;;;;;;;4981722;28;20034;-69
2022/05/31 07:43:07;;;;;;;2.78;1.40;;;18.00;91.20;;;;;;4983855;28;20049;-69
2022/05/31 07:45:33;;;;;;;2.17;0.97;;;18.10;95.70;;;;;;4981007;28;20034;-69
2022/05/31 07:47:59;;;;;;;2.42;1.13;;;18.30;99.20;;;;;;4980751;28;20308;-68
2022/05/31 07:50:25;;;;;;;1.35;0.90;;;;;;;;;;4985340;28;20046;-69
2022/05/31 07:52:50;;;;;;;2.03;1.17;;;18.40;88.70;;;;;;4980371;28;20058;-68
2022/05/31 07:55:16;;;;;;;3.60;1.48;;;;;;;;;;4984585;28;20034;-69
2022/05/31 08:00:27;;;;;;;3.15;0.90;;;;;;;;;;4985717;28;20128;-71
2022/05/31 08:02:53;;;;;;;1.30;1.15;;;;;;;;;;4980741;28;20070;-71
2022/05/31 08:05:19;;;;;;;3.00;1.75;;;;;;;;;;4985049;28;20033;-68
2022/05/31 08:07:45;;;;;;;1.35;0.93;;;;;;;;;;4984193;28;20142;-69
2022/05/31 08:10:11;;;;;;;1.70;0.82;;;20.60;79.40;;;;;;4985796;28;20125;-70
2022/05/31 08:12:37;;;;;;;4.05;1.33;;;;;;;;;;4981949;28;20026;-69
2022/05/31 08:15:04;;;;;;;1.17;0.60;;;21.10;91.90;;;;;;4980487;28;20073;-68
2022/05/31 08:17:30;;;;;;;4.70;1.40;;;21.20;91.40;;;;;;4985309;28;20113;-68
2022/05/31 08:19:56;;;;;;;2.00;1.42;;;21.30;88.00;;;;;;4984473;28;20488;-69
2022/05/31 08:22:22;;;;;;;2.83;2.05;;;;;;;;;;4980129;28;20022;-69
2022/05/31 08:24:49;;;;;;;3.13;1.47;;;;;;;;;;4984378;28;20915;-69
2022/05/31 08:27:15;;;;;;;1.27;0.98;;;;;;;;;;4983295;28;20763;-69
2022/05/31 08:29:42;;;;;;;1.90;1.30;;;;;;;;;;4979864;28;20050;-70
2022/05/31 08:32:08;;;;;;;0.80;0.65;;;;;;;;;;4978693;28;20059;-69
2022/05/31 08:34:34;;;;;;;1.52;0.90;;;;;;;;;;4983549;28;20085;-70
2022/05/31 08:37:00;;;;;;;2.67;1.08;;;;;;;;;;4985224;28;20035;-69
2022/05/31 08:39:26;;;;;;;3.80;0.63;;;;;;;;;;4984027;28;20033;-69
2022/05/31 08:42:05;;;;;;;2.45;0.68;;;;;;;;;;4980212;28;20050;-69
2022/05/31 08:44:58;;;;;;;2.47;1.38;;;20.20;73.70;;;;;;4982677;28;20070;-70
2022/05/31 08:47:39;;;;;;;4.03;1.80;;;;;;;;;;4983300;28;20054;-69
2022/05/31 08:53:26;;;;;;;1.77;1.02;;;20.70;77.80;;;;;;4979436;28;20564;-70
2022/05/31 08:58:57;;;;;;;3.20;1.52;;;;;;;;;;4984023;28;27615;-70
2022/05/31 09:01:24;;;;;;;2.00;1.02;;;;;;;;;;4983046;28;20033;-70
2022/05/31 09:03:57;;;;;;;2.00;1.17;;;;;;;;;;4981915;28;20038;-70
2022/05/31 09:06:25;;;;;;;1.25;0.75;;;;;;;;;;4983932;28;20034;-69
2022/05/31 09:09:05;;;;;;;2.80;1.00;;;21.10;71.60;;;;;;4983202;28;20073;-69
2022/05/31 09:11:42;;;;;;;1.48;1.27;;;;;;;;;;4981930;28;20066;-70
2022/05/31 09:14:14;;;;;;;0.60;0.45;;;;;;;;;;4987186;28;20030;-70
2022/05/31 09:16:51;;;;;;;2.00;0.82;;;21.90;69.70;;;;;;4976230;28;20030;-70
2022/05/31 09:19:29;;;;;;;2.03;0.80;;;22.00;70.40;;;;;;4985132;28;20030;-69
2022/05/31 09:21:56;;;;;;;1.67;0.57;;;22.00;88.80;;;;;;4984361;28;20085;-68
2022/05/31 09:24:22;;;;;;;1.52;1.02;;;;;;;;;;4981885;28;20289;-70
2022/05/31 09:27:06;;;;;;;2.10;0.95;;;;;;;;;;4987125;28;20027;-69
2022/05/31 09:29:41;;;;;;;1.30;0.75;;;;;;;;;;4986895;28;20778;-70
2022/05/31 09:32:14;;;;;;;3.78;0.80;;;;;;;;;;4982936;28;20042;-69
2022/05/31 09:34:42;;;;;;;1.75;0.82;;;;;;;;;;4981528;28;20071;-69
2022/05/31 09:37:11;;;;;;;0.50;0.35;;;;;;;;;;4989293;28;20088;-68
2022/05/31 09:39:46;;;;;;;1.08;0.98;;;;;;;;;;4987660;28;20026;-68
2022/05/31 09:42:25;;;;;;;2.97;0.77;;;;;;;;;;4983215;28;20073;-69
2022/05/31 09:44:57;;;;;;;2.38;0.90;;;;;;;;;;4985874;28;20038;-68
2022/05/31 09:47:26;;;;;;;3.60;0.93;;;;;;;;;;4987232;28;20038;-68
2022/05/31 09:49:52;;;;;;;1.23;0.90;;;;;;;;;;4980067;28;20529;-69
2022/05/31 09:52:42;;;;;;;4.40;0.95;;;;;;;;;;4982109;28;20022;-68
2022/05/31 09:58:15;;;;;;;1.48;0.80;;;;;;;;;;4984986;28;20116;-67
2022/05/31 10:00:59;;;;;;;3.67;0.70;;;;;;;;;;4987413;28;20075;-68
2022/05/31 10:03:52;;;;;;;1.75;0.60;;;;;;;;;;4981393;28;20141;-66
2022/05/31 10:06:22;;;;;;;4.22;0.88;;;;;;;;;;4998430;28;20558;-67
2022/05/31 10:08:51;;;;;;;5.82;1.20;;;21.20;68.00;;;;;;5004469;28;20220;-67
2022/05/31 10:11:31;;;;;;;0.85;0.80;;;;;;;;;;5003452;28;20054;-67
2022/05/31 10:13:59;;;;;;;1.08;0.52;;;;;;;;;;4983803;28;20129;-67
2022/05/31 10:16:25;;;;;;;;;;;;;;;;;;5002767;28;20458;-68
2022/05/31 10:18:51;;;;;;;1.85;1.10;;;;;;;;;;5005411;28;19955;-68
2022/05/31 10:21:37;;;;;;;1.27;0.60;;;;;;;;;;5002404;28;20037;-68
2022/05/31 10:24:16;;;;;;;3.17;0.70;;;19.50;73.10;;;;;;5002655;28;20511;-66
2022/05/31 10:26:44;;;;;;;0.63;0.50;;;19.30;72.60;;;;;;5002888;28;20048;-68
2022/05/31 10:29:29;;;;;;;0.63;0.50;;;;;;;;;;5000793;28;20034;-67
2022/05/31 10:31:57;;;;;;;1.70;1.00;;;;;;;;;;4998669;28;20048;-67
2022/05/31 10:34:44;;;;;;;0.68;0.68;;;;;;;;;;5003475;28;20034;-67
2022/05/31 10:37:26;;;;;;;0.43;0.43;;;;;;;;;;5005011;28;20045;-67
2022/05/31 10:40:00;;;;;;;1.58;0.90;;;;;;;;;;5003532;28;20507;-68
2022/05/31 10:42:27;;;;;;;0.80;0.68;;;;;;;;;;4993778;28;20051;-66
2022/05/31 10:44:56;;;;;;;0.82;0.82;;;19.20;70.80;;;;;;4986448;28;20066;-66
2022/05/31 10:47:24;;;;;;;1.10;0.73;;;;;;;;;;4986308;28;20039;-67
2022/05/31 10:49:51;;;;;;;0.80;0.80;;;;;;;;;;4984831;28;20053;-70
2022/05/31 10:52:22;;;;;;;1.27;0.65;;;;;;;;;;4982502;28;20033;-67
2022/05/31 10:54:48;;;;;;;1.50;0.77;;;;;;;;;;4987170;28;20034;-67
2022/05/31 10:57:22;;;;;;;1.42;0.70;;;;;;;;;;4985801;28;20026;-67
2022/05/31 10:59:54;;;;;;;2.15;0.90;;;;;;;;;;4986436;28;20101;-66
2022/05/31 11:02:38;;;;;;;0.88;0.80;;;;;;;;;;4981087;28;20080;-68
2022/05/31 11:05:10;;;;;;;0.85;0.80;;;;;;;;;;4985750;28;20084;-67
2022/05/31 11:11:29;;;;;;;7.80;0.90;;;;;;;;;;4982962;28;20027;-67
2022/05/31 11:13:54;;;;;;;3.80;2.30;;;;;;;;;;4981200;28;20061;-67
2022/05/31 11:16:20;;;;;;;1.25;0.98;;;;;;;;;;4984253;28;20054;-68
2022/05/31 11:19:04;;;;;;;1.17;0.55;;;;;;;;;;4986898;28;20034;-68
2022/05/31 11:21:45;;;;;;;1.77;1.10;;;19.00;80.70;;;;;;4984419;28;20033;-69
2022/05/31 11:24:25;;;;;;;1.30;0.90;;;;;;;;;;4981297;28;20113;-67
2022/05/31 11:27:09;;;;;;;1.13;1.00;;;;;;;;;;4975752;28;20762;-67
2022/05/31 11:29:47;;;;;;;2.55;1.70;;;;;;;;;;4983149;28;20530;-68
2022/05/31 11:32:20;;;;;;;1.48;0.98;;;;;;;;;;4980139;28;20618;-66
2022/05/31 11:34:46;;;;;;;1.48;0.98;;;;;;;;;;4983585;28;20117;-67
2022/05/31 11:37:20;;;;;;;0.93;0.65;;;;;;;;;;4987334;28;20527;-68
2022/05/31 11:40:04;;;;;;;1.23;0.85;;;;;;;;;;4987136;28;20034;-68
2022/05/31 11:42:33;;;;;;;1.52;0.93;;;;;;;;;;4980293;28;20046;-68
2022/05/31 11:45:18;;;;;;;1.05;0.85;;;;;;;;;;4983857;28;20022;-66
2022/05/31 11:47:52;;;;;;;1.27;1.15;;;;;;;;;;4985384;28;20038;-68
2022/05/31 11:50:24;;;;;;;2.35;0.80;;;;;;;;;;4984837;28;20049;-68
2022/05/31 11:52:50;;;;;;;1.35;0.90;;;;;;;;;;4980686;28;20467;-68
2022/05/31 11:55:25;;;;;;;0.90;0.77;;;;;;;;;;4983689;28;20030;-68
2022/05/31 11:57:51;;;;;;;1.30;0.98;;;;;;;;;;4986193;28;20032;-68
2022/05/31 12:00:18;;;;;;;1.60;1.25;;;;;;;;;;4985058;28;20023;-68
2022/05/31 12:02:49;;;;;;;30.63;1.97;;;;;;;;;;4979976;28;20503;-67
2022/05/31 12:05:20;;;;;;;1.05;0.80;;;;;;;;;;4982255;28;20030;-69
2022/05/31 12:07:49;;;;;;;4.43;2.67;;;;;;;;;;4982889;28;20049;-69
2022/05/31 12:10:28;;;;;;;2.63;1.58;;;19.20;76.40;;;;;;4985184;28;20034;-68
2022/05/31 12:12:56;;;;;;;1.52;0.98;;;;;;;;;;4983356;28;20065;-66
2022/05/31 12:15:29;;;;;;;0.65;0.65;;;;;;;;;;4982454;28;20042;-67
2022/05/31 12:18:15;;;;;;;1.83;0.43;;;19.00;76.40;;;;;;4984479;28;20486;-67
2022/05/31 12:20:47;;;;;;;2.83;1.23;;;;;;;;;;4984179;28;20026;-68
2022/05/31 12:23:15;;;;;;;1.33;0.85;;;;;;;;;;4980073;28;20850;-68
2022/05/31 12:25:44;;;;;;;2.67;1.13;;;;;;;;;;4979676;28;20038;-68
2022/05/31 12:28:18;;;;;;;1.38;0.70;;;;;;;;;;4983564;28;20042;-67
2022/05/31 12:31:04;;;;;;;1.38;0.68;;;;;;;;;;4985855;28;20101;-66
2022/05/31 12:33:46;;;;;;;1.73;0.80;;;;;;;;;;4979004;28;20097;-67
2022/05/31 12:36:17;;;;;;;1.23;0.90;;;;;;;;;;4984135;28;20045;-68
2022/05/31 12:38:52;;;;;;;0.98;0.65;;;;;;;;;;4976447;28;20601;-67
2022/05/31 12:41:37;;;;;;;2.35;0.90;;;;;;;;;;4981037;28;20022;-68
2022/05/31 12:44:08;;;;;;;1.33;0.90;;;;;;;;;;4982609;28;20086;-67
2022/05/31 12:46:47;;;;;;;1.40;0.90;;;;;;;;;;4988084;28;20041;-66
2022/05/31 12:49:27;;;;;;;0.95;0.82;;;;;;;;;;4987047;28;20034;-68
2022/05/31 12:54:53;;;;;;;1.15;0.93;;;;;;;;;;5005622;28;20511;-67
2022/05/31 12:57:21;;;;;;;1.55;1.00;;;;;;;;;;5000254;28;20046;-68
2022/05/31 12:59:48;;;;;;;1.40;0.80;;;;;;;;;;5003583;28;20038;-65
2022/05/31 13:02:21;;;;;;;3.25;1.13;;;;;;;;;;4999456;28;20040;-68
2022/05/31 13:04:53;;;;;;;1.60;1.10;;;19.10;75.50;;;;;;5002080;28;20046;-68
2022/05/31 13:07:20;;;;;;;3.50;1.17;;;;;;;;;;5005691;28;20508;-68
2022/05/31 13:09:49;;;;;;;2.40;1.30;;;20.00;74.30;;;;;;5004207;28;20529;-68
2022/05/31 13:20:56;;;;;;;1.35;0.90;;;;;;;;;;5004155;28;20956;-68
2022/05/31 13:23:27;;;;;;;1.15;0.77;;;;;;;;;;5000165;28;20036;-68
2022/05/31 13:26:02;;;;;;;1.35;0.90;;;20.80;71.40;;;;;;5002413;28;20172;-69
2022/05/31 13:28:32;;;;;;;1.63;0.90;;;;;;;;;;5005037;28;20112;-68
2022/05/31 13:31:05;;;;;;;1.17;0.82;;;;;;;;;;5001745;28;20073;-68
2022/05/31 13:33:32;;;;;;;3.63;1.13;;;;;;;;;;4982269;28;20037;-69
2022/05/31 13:36:14;;;;;;;2.05;0.90;;;19.80;74.90;;;;;;4986383;28;20615;-69
2022/05/31 13:38:42;;;;;;;2.05;1.33;;;;;;;;;;4982147;28;20109;-67
2022/05/31 13:41:10;;;;;;;0.75;0.68;;;;;;;;;;4983664;28;20579;-69
2022/05/31 13:43:42;;;;;;;1.38;1.10;;;;;;;;;;4982945;28;20051;-67
2022/05/31 13:46:26;;;;;;;3.55;1.00;;;;;;;;;;4988190;28;20113;-66
2022/05/31 13:48:54;;;;;;;1.67;1.02;;;;;;;;;;4988819;28;20639;-68
2022/05/31 13:51:23;;;;;;;0.90;0.85;;;;;;;;;;4987217;28;20034;-70
2022/05/31 13:53:49;;;;;;;0.60;0.60;;;;;;;;;;4981243;28;20475;-66
2022/05/31 13:56:16;;;;;;;1.02;0.80;;;;;;;;;;4979594;28;20504;-67
2022/05/31 13:58:42;;;;;;;1.83;1.10;;;;;;;;;;4987216;28;20030;-68
2022/05/31 14:01:23;;;;;;;1.55;1.17;;;;;;;;;;4989137;28;20035;-68
2022/05/31 14:03:50;;;;;;;2.53;1.23;;;;;;;;;;4983989;28;20033;-69
2022/05/31 14:06:19;;;;;;;2.57;1.90;;;18.70;84.10;;;;;;4986798;28;20034;-70
2022/05/31 14:08:56;;;;;;;0.90;0.90;;;18.60;85.00;;;;;;4983654;28;20018;-67
2022/05/31 14:11:26;;;;;;;6.57;1.85;;;18.30;85.60;;;;;;4982113;28;20045;-67
2022/05/31 14:13:54;;;;;;;3.70;1.05;;;;;;;;;;4982635;28;20058;-66
2022/05/31 14:16:37;;;;;;;3.95;1.85;;;;;;;;;;4986669;28;20034;-66
2022/05/31 14:19:04;;;;;;;3.38;1.10;;;;;;;;;;4987849;28;20030;-68
2022/05/31 14:21:36;;;;;;;3.17;1.30;;;;;;;;;;4986331;28;20054;-68
2022/05/31 14:24:02;;;;;;;5.45;1.58;;;;;;;;;;4984753;28;20416;-68
2022/05/31 14:26:28;;;;;;;3.00;1.58;;;;;;;;;;4986480;28;20755;-70
2022/05/31 14:29:26;;;;;;;1.80;1.70;;;;;;;;;;4985710;28;20035;-67
2022/05/31 14:32:04;;;;;;;1.20;1.10;;;;;;;;;;4962054;28;20054;-67
2022/05/31 14:34:39;;;;;;;5.13;2.85;;;;;;;;;;4962022;28;20217;-64
2022/05/31 14:37:06;;;;;;;1.88;1.45;;;;;;;;;;4966461;28;20026;-66
2022/05/31 14:39:34;;;;;;;2.67;1.70;;;;;;;;;;4962812;28;20041;-67
2022/05/31 14:42:00;;;;;;;2.35;1.25;;;;;;;;;;4959780;28;20031;-67
2022/05/31 14:44:42;;;;;;;3.45;1.60;;;;;;;;;;4961171;28;20118;-64
2022/05/31 14:47:12;;;;;;;4.30;1.55;;;;;;;;;;4963355;28;20045;-67
2022/05/31 14:49:46;;;;;;;1.65;1.55;;;;;;;;;;4960659;28;20035;-67
2022/05/31 14:52:16;;;;;;;1.60;1.40;;;;;;;;;;4959411;28;20041;-67
2022/05/31 14:54:44;;;;;;;5.30;2.03;;;;;;;;;;4963546;28;20563;-67
2022/05/31 14:57:20;;;;;;;2.28;1.60;;;;;;;;;;4961322;28;20572;-67
2022/05/31 14:59:47;;;;;;;2.80;1.20;;;17.30;97.50;;;;;;4962542;28;20034;-68
2022/05/31 15:02:26;;;;;;;4.47;2.83;;;;;;;;;;4959346;28;20047;-69
2022/05/31 15:04:54;;;;;;;1.85;1.52;;;;;;;;;;4961768;28;20035;-68
2022/05/31 15:07:31;;;;;;;1.58;0.93;;;;;;;;;;4969622;28;20069;-68
2022/05/31 15:10:25;;;;;;;3.25;1.92;;;18.10;95.00;;;;;;4981578;28;20047;-66
2022/05/31 15:21:17;;;;;;;2.13;1.42;;;18.20;95.00;;;;;;5000738;28;20145;-67
2022/05/31 15:23:43;;;;;;;2.58;1.55;;;;;;;;;;4995759;28;20060;-67